createdAt,value
2022-08-09T05:32:56.313Z,18.10
2022-08-09T05:35:23.601Z,18.70
2022-08-09T05:37:51.179Z,18.70
2022-08-09T05:40:18.762Z,18.80
2022-08-09T05:42:47.031Z,18.90
2022-08-09T05:45:14.908Z,19.60
2022-08-09T05:47:52.425Z,20.50
2022-08-09T05:50:36.238Z,21.80
2022-08-09T05:53:31.711Z,22.50
2022-08-09T05:55:59.524Z,24.60
2022-08-09T05:58:28.832Z,25.00
2022-08-09T06:00:56.119Z,25.90
2022-08-09T06:03:25.888Z,27.50
2022-08-09T06:06:11.532Z,28.00
2022-08-09T06:08:39.089Z,28.40
2022-08-09T06:11:16.691Z,28.80
2022-08-09T06:13:45.944Z,29.40
2022-08-09T06:16:15.260Z,29.70
2022-08-09T06:18:43.685Z,29.20
2022-08-09T06:21:11.171Z,30.30
2022-08-09T06:23:58.820Z,30.00
2022-08-09T06:26:28.467Z,30.20
2022-08-09T06:29:01.083Z,30.90
2022-08-09T06:31:40.431Z,31.20
2022-08-09T06:34:23.105Z,31.90
2022-08-09T06:36:59.246Z,32.40
2022-08-09T06:39:38.862Z,32.70
2022-08-09T06:42:20.259Z,32.60
2022-08-09T06:44:54.207Z,32.60
2022-08-09T06:47:23.682Z,32.90
2022-08-09T06:50:13.742Z,33.10
2022-08-09T06:52:47.194Z,32.90
2022-08-09T06:55:23.203Z,33.30
2022-08-09T06:58:03.159Z,32.70
2022-08-09T07:00:49.067Z,32.60
2022-08-09T07:03:28.495Z,32.30
2022-08-09T07:06:02.980Z,32.10
2022-08-09T07:08:34.686Z,32.30
2022-08-09T07:11:04.192Z,32.20
2022-08-09T07:13:45.257Z,31.70
2022-08-09T07:16:42.563Z,32.60
2022-08-09T07:19:10.670Z,31.90
2022-08-09T07:21:55.889Z,32.90
2022-08-09T07:24:32.836Z,33.00
2022-08-09T07:27:10.855Z,33.40
2022-08-09T07:29:57.102Z,33.60
2022-08-09T07:32:32.507Z,33.90
2022-08-09T07:35:07.887Z,34.40
2022-08-09T07:37:43.521Z,35.30
2022-08-09T07:40:17.711Z,36.00
2022-08-09T07:42:50.671Z,34.70
2022-08-09T07:45:38.170Z,35.20
2022-08-09T07:48:25.908Z,36.50
2022-08-09T07:51:09.601Z,37.10
2022-08-09T07:54:05.982Z,37.60
2022-08-09T07:56:31.406Z,37.40
2022-08-09T07:58:59.301Z,37.70
2022-08-09T08:01:32.729Z,36.00
2022-08-09T08:04:03.318Z,35.00
2022-08-09T08:06:32.588Z,36.10
2022-08-09T08:09:05.104Z,36.40
2022-08-09T08:12:11.111Z,37.00
2022-08-09T08:14:25.803Z,37.40
2022-08-09T08:17:07.294Z,37.50
2022-08-09T08:19:35.205Z,38.10
2022-08-09T08:22:03.511Z,36.70
2022-08-09T08:24:35.259Z,36.60
2022-08-09T08:27:17.078Z,35.80
2022-08-09T08:29:50.011Z,35.90
2022-08-09T08:32:34.540Z,35.70
2022-08-09T08:35:08.690Z,34.00
2022-08-09T08:37:42.036Z,34.60
2022-08-09T08:40:24.434Z,33.80
2022-08-09T08:42:58.904Z,34.80
2022-08-09T08:45:37.668Z,35.20
2022-08-09T08:48:06.211Z,35.60
2022-08-09T08:50:38.198Z,35.40
2022-08-09T08:53:06.508Z,34.80
2022-08-09T08:55:43.888Z,34.60
2022-08-09T08:58:11.684Z,35.30
2022-08-09T09:00:41.214Z,35.30
2022-08-09T09:03:16.253Z,35.70
2022-08-09T09:06:01.117Z,35.80
2022-08-09T09:08:40.927Z,37.10
2022-08-09T09:11:13.755Z,37.20
2022-08-09T09:13:56.576Z,35.80
2022-08-09T09:16:29.899Z,35.10
2022-08-09T09:19:37.847Z,34.60
2022-08-09T09:22:11.318Z,34.00
2022-08-09T09:24:43.482Z,32.80
2022-08-09T09:28:02.973Z,34.00
2022-08-09T09:30:23.741Z,34.20
2022-08-09T09:33:15.625Z,34.80
2022-08-09T09:36:19.923Z,35.50
2022-08-09T09:38:50.723Z,35.30
2022-08-09T09:41:33.093Z,34.40
2022-08-09T09:44:11.055Z,35.00
2022-08-09T09:46:51.109Z,34.70
2022-08-09T09:49:31.954Z,34.80
2022-08-09T09:52:33.486Z,34.40
2022-08-09T09:55:24.252Z,33.30
2022-08-09T09:58:19.067Z,33.50
2022-08-09T10:00:59.795Z,34.90
2022-08-09T10:03:57.256Z,33.20
2022-08-09T10:06:31.935Z,32.90
2022-08-09T10:09:11.931Z,32.90
2022-08-09T10:12:14.762Z,32.60
2022-08-09T10:14:48.607Z,32.90
2022-08-09T10:17:40.340Z,33.00
2022-08-09T10:20:27.467Z,33.30
2022-08-09T10:23:17.390Z,33.10
2022-08-09T10:26:08.202Z,33.20
2022-08-09T10:28:36.148Z,33.60
2022-08-09T10:32:27.602Z,34.10
2022-08-09T10:34:08.704Z,34.10
2022-08-09T10:36:42.218Z,33.90
2022-08-09T10:39:15.456Z,33.70
2022-08-09T10:41:47.942Z,33.90
2022-08-09T10:44:21.692Z,33.30
2022-08-09T10:48:19.282Z,33.70
2022-08-09T10:50:31.088Z,33.70
2022-08-09T10:53:19.298Z,33.80
2022-08-09T10:55:55.129Z,33.80
2022-08-09T10:58:32.495Z,33.50
2022-08-09T11:03:02.816Z,33.30
2022-08-09T11:12:20.444Z,34.60
2022-08-09T11:14:54.866Z,33.80
2022-08-09T11:20:17.979Z,33.80
2022-08-09T11:28:34.456Z,32.80
2022-08-09T11:31:50.394Z,32.60
2022-08-09T11:34:33.453Z,32.70
2022-08-09T11:37:03.677Z,32.30
2022-08-09T11:40:04.985Z,31.90
2022-08-09T11:45:43.190Z,31.50
2022-08-09T11:52:49.005Z,32.10
2022-08-09T11:54:14.500Z,31.80
2022-08-09T11:56:48.945Z,31.80
2022-08-09T11:59:33.740Z,32.00
2022-08-09T12:02:17.501Z,31.80
2022-08-09T12:04:57.961Z,31.50
2022-08-09T12:07:28.875Z,30.90
2022-08-09T12:10:31.927Z,30.90
2022-08-09T12:12:58.129Z,30.50
2022-08-09T12:15:48.679Z,30.20
2022-08-09T12:18:29.655Z,29.90
2022-08-09T12:21:00.654Z,29.60
2022-08-09T12:23:56.589Z,29.60
2022-08-09T12:26:25.540Z,29.70
2022-08-09T12:29:10.224Z,29.60
2022-08-09T12:32:02.539Z,29.70
2022-08-09T12:34:40.465Z,29.70
2022-08-09T12:37:24.102Z,30.10
2022-08-09T12:40:02.688Z,30.20
2022-08-09T12:42:30.719Z,30.20
2022-08-09T12:44:59.476Z,30.20
2022-08-09T12:47:37.158Z,29.80
2022-08-09T12:50:19.641Z,29.50
2022-08-09T12:53:09.309Z,29.80
2022-08-09T12:56:14.580Z,29.90
2022-08-09T12:58:27.807Z,29.70
2022-08-09T13:00:56.666Z,29.70
2022-08-09T13:03:53.167Z,29.70
2022-08-09T13:06:37.040Z,29.40
2022-08-09T13:09:30.413Z,29.20
2022-08-09T13:12:03.176Z,29.20
2022-08-09T13:14:42.804Z,29.40
2022-08-09T13:17:43.814Z,29.50
2022-08-09T13:20:14.139Z,29.60
2022-08-09T13:23:06.072Z,29.60
2022-08-09T13:25:42.004Z,29.70
2022-08-09T13:28:11.741Z,29.70
2022-08-09T13:32:12.270Z,29.70
2022-08-09T13:33:52.599Z,29.70
2022-08-09T13:36:24.080Z,29.90
2022-08-09T13:41:50.641Z,29.80
2022-08-09T13:42:11.955Z,29.90
2022-08-09T13:44:42.866Z,29.60
2022-08-09T13:47:27.405Z,29.60
2022-08-09T13:50:01.988Z,29.50
2022-08-09T13:52:30.803Z,29.60
2022-08-09T13:55:04.542Z,29.70
2022-08-09T13:57:40.280Z,29.60
2022-08-09T14:00:16.517Z,29.70
2022-08-09T14:03:16.807Z,29.70
2022-08-09T14:05:57.120Z,29.90
2022-08-09T14:08:22.966Z,29.70
2022-08-09T14:10:52.153Z,29.60
2022-08-09T14:14:15.175Z,29.50
2022-08-09T14:16:15.310Z,28.90
2022-08-09T14:18:45.926Z,29.40
2022-08-09T14:21:21.024Z,29.40
2022-08-09T14:23:54.804Z,29.50
2022-08-09T14:26:32.936Z,29.70
2022-08-09T14:29:08.354Z,29.70
2022-08-09T14:31:53.401Z,29.70
2022-08-09T14:34:31.067Z,29.60
2022-08-09T14:37:06.020Z,29.60
2022-08-09T14:39:45.057Z,29.60
2022-08-09T14:42:30.069Z,29.50
2022-08-09T14:45:00.333Z,29.60
2022-08-09T14:47:44.641Z,29.40
2022-08-09T14:50:16.204Z,29.60
2022-08-09T14:52:50.680Z,29.50
2022-08-09T14:55:20.177Z,29.40
2022-08-09T14:57:49.174Z,29.40
2022-08-09T15:00:17.763Z,28.60
2022-08-09T15:02:47.126Z,29.30
2022-08-09T15:05:16.195Z,29.40
2022-08-09T15:07:45.474Z,29.30
2022-08-09T15:10:24.866Z,29.30
2022-08-09T15:12:54.004Z,29.30
2022-08-09T15:15:22.154Z,29.40
2022-08-09T15:17:52.413Z,29.30
2022-08-09T15:21:55.589Z,29.30
2022-08-09T15:24:01.906Z,29.30
2022-08-09T15:25:58.539Z,29.40
2022-08-09T15:28:28.388Z,29.30
2022-08-09T15:31:08.746Z,28.30
2022-08-09T15:34:17.408Z,29.20
2022-08-09T15:36:29.181Z,29.30
2022-08-09T15:39:00.173Z,29.10
2022-08-09T15:41:32.016Z,29.20
2022-08-09T15:44:01.734Z,29.20
2022-08-09T15:46:34.002Z,29.10
2022-08-09T15:49:21.127Z,29.00
2022-08-09T15:52:04.791Z,29.00
2022-08-09T15:54:46.273Z,29.00
2022-08-09T15:57:35.621Z,29.00
2022-08-09T16:00:14.823Z,28.90
